sensor_id;sensor_type;location;lat;lon;timestamp;pressure;altitude;pressure_sealevel;temperature;humidity
4392;BME280;2210;51.938;8.488;2023-05-21T00:02:09;100715.69;;;14.53;100.00
4392;BME280;2210;51.938;8.488;2023-05-21T00:06:11;100707.59;;;14.68;100.00
4392;BME280;2210;51.938;8.488;2023-05-21T00:10:15;100711.53;;;14.72;99.87
4392;BME280;2210;51.938;8.488;2023-05-21T00:14:15;100707.06;;;14.71;99.21
4392;BME280;2210;51.938;8.488;2023-05-21T00:18:16;100704.81;;;14.68;100.00
4392;BME280;2210;51.938;8.488;2023-05-21T00:22:20;100700.38;;;14.67;100.00
4392;BME280;2210;51.938;8.488;2023-05-21T00:26:20;100691.22;;;14.66;100.00
4392;BME280;2210;51.938;8.488;2023-05-21T00:30:23;100685.41;;;14.68;100.00
4392;BME280;2210;51.938;8.488;2023-05-21T00:34:24;100680.75;;;14.52;100.00
4392;BME280;2210;51.938;8.488;2023-05-21T00:38:34;100682.41;;;14.53;100.00
4392;BME280;2210;51.938;8.488;2023-05-21T00:42:37;100677.34;;;14.66;100.00
4392;BME280;2210;51.938;8.488;2023-05-21T00:46:45;100669.75;;;14.62;100.00
4392;BME280;2210;51.938;8.488;2023-05-21T00:50:48;100669.84;;;14.45;100.00
4392;BME280;2210;51.938;8.488;2023-05-21T00:54:55;100672.56;;;14.40;100.00
4392;BME280;2210;51.938;8.488;2023-05-21T00:58:55;100671.31;;;14.53;100.00
4392;BME280;2210;51.938;8.488;2023-05-21T01:02:56;100665.25;;;14.56;100.00
4392;BME280;2210;51.938;8.488;2023-05-21T01:06:56;100659.03;;;14.43;100.00
4392;BME280;2210;51.938;8.488;2023-05-21T01:10:57;100661.91;;;14.54;100.00
4392;BME280;2210;51.938;8.488;2023-05-21T01:15:00;100656.75;;;14.40;100.00
4392;BME280;2210;51.938;8.488;2023-05-21T01:19:01;100655.91;;;14.40;100.00
4392;BME280;2210;51.938;8.488;2023-05-21T01:23:02;100647.00;;;14.38;100.00
4392;BME280;2210;51.938;8.488;2023-05-21T01:27:03;100655.59;;;14.36;100.00
4392;BME280;2210;51.938;8.488;2023-05-21T01:31:20;100651.09;;;14.30;100.00
4392;BME280;2210;51.938;8.488;2023-05-21T01:35:30;100649.19;;;14.08;100.00
4392;BME280;2210;51.938;8.488;2023-05-21T01:39:36;100652.66;;;14.21;100.00
4392;BME280;2210;51.938;8.488;2023-05-21T01:43:39;100647.81;;;14.11;100.00
4392;BME280;2210;51.938;8.488;2023-05-21T01:47:44;100647.22;;;14.09;100.00
4392;BME280;2210;51.938;8.488;2023-05-21T01:51:47;100647.09;;;14.21;100.00
4392;BME280;2210;51.938;8.488;2023-05-21T01:55:47;100643.34;;;14.32;100.00
4392;BME280;2210;51.938;8.488;2023-05-21T01:59:47;100643.94;;;14.12;100.00
4392;BME280;2210;51.938;8.488;2023-05-21T02:03:48;100640.47;;;14.22;100.00
4392;BME280;2210;51.938;8.488;2023-05-21T02:07:49;100636.31;;;14.24;100.00
4392;BME280;2210;51.938;8.488;2023-05-21T02:11:50;100644.25;;;14.15;100.00
4392;BME280;2210;51.938;8.488;2023-05-21T02:15:51;100635.06;;;14.10;100.00
4392;BME280;2210;51.938;8.488;2023-05-21T02:19:53;100643.03;;;14.06;100.00
4392;BME280;2210;51.938;8.488;2023-05-21T02:23:56;100638.00;;;14.03;100.00
4392;BME280;2210;51.938;8.488;2023-05-21T02:28:03;100640.53;;;13.82;100.00
4392;BME280;2210;51.938;8.488;2023-05-21T02:32:04;100641.22;;;13.73;100.00
4392;BME280;2210;51.938;8.488;2023-05-21T02:36:05;100635.06;;;13.88;100.00
4392;BME280;2210;51.938;8.488;2023-05-21T02:40:09;100620.69;;;13.91;100.00
4392;BME280;2210;51.938;8.488;2023-05-21T02:44:09;100619.50;;;13.87;100.00
4392;BME280;2210;51.938;8.488;2023-05-21T02:48:12;100621.75;;;13.90;100.00
4392;BME280;2210;51.938;8.488;2023-05-21T02:52:17;100628.78;;;13.75;100.00
4392;BME280;2210;51.938;8.488;2023-05-21T02:56:17;100626.59;;;13.77;100.00
4392;BME280;2210;51.938;8.488;2023-05-21T03:00:17;100617.19;;;13.78;100.00
4392;BME280;2210;51.938;8.488;2023-05-21T03:04:18;100616.06;;;13.79;100.00
4392;BME280;2210;51.938;8.488;2023-05-21T03:08:20;100613.00;;;13.76;100.00
4392;BME280;2210;51.938;8.488;2023-05-21T03:12:21;100610.41;;;13.69;100.00
4392;BME280;2210;51.938;8.488;2023-05-21T03:16:24;100614.19;;;13.63;100.00
4392;BME280;2210;51.938;8.488;2023-05-21T03:20:24;100609.44;;;13.58;100.00
4392;BME280;2210;51.938;8.488;2023-05-21T03:24:27;100606.84;;;13.52;100.00
4392;BME280;2210;51.938;8.488;2023-05-21T03:28:28;100601.88;;;13.54;100.00
4392;BME280;2210;51.938;8.488;2023-05-21T03:32:28;100610.19;;;13.54;100.00
4392;BME280;2210;51.938;8.488;2023-05-21T03:36:28;100614.56;;;13.49;100.00
4392;BME280;2210;51.938;8.488;2023-05-21T03:40:29;100616.88;;;13.58;100.00
4392;BME280;2210;51.938;8.488;2023-05-21T03:44:29;100622.44;;;13.58;100.00
4392;BME280;2210;51.938;8.488;2023-05-21T03:48:31;100612.94;;;13.54;100.00
4392;BME280;2210;51.938;8.488;2023-05-21T03:52:31;100617.47;;;13.60;100.00
4392;BME280;2210;51.938;8.488;2023-05-21T03:56:37;100611.22;;;13.47;100.00
4392;BME280;2210;51.938;8.488;2023-05-21T04:00:38;100621.03;;;13.55;100.00
4392;BME280;2210;51.938;8.488;2023-05-21T04:04:48;100610.78;;;13.56;100.00
4392;BME280;2210;51.938;8.488;2023-05-21T04:08:50;100611.88;;;13.55;100.00
4392;BME280;2210;51.938;8.488;2023-05-21T04:12:57;100620.34;;;13.65;100.00
4392;BME280;2210;51.938;8.488;2023-05-21T04:16:57;100626.41;;;13.62;100.00
4392;BME280;2210;51.938;8.488;2023-05-21T04:20:58;100632.13;;;13.77;100.00
4392;BME280;2210;51.938;8.488;2023-05-21T04:24:59;100637.34;;;13.74;100.00
4392;BME280;2210;51.938;8.488;2023-05-21T04:29:00;100631.63;;;13.80;100.00
4392;BME280;2210;51.938;8.488;2023-05-21T04:33:02;100641.94;;;13.85;100.00
4392;BME280;2210;51.938;8.488;2023-05-21T04:37:03;100641.00;;;13.79;100.00
4392;BME280;2210;51.938;8.488;2023-05-21T04:41:03;100643.56;;;13.81;100.00
4392;BME280;2210;51.938;8.488;2023-05-21T04:45:04;100644.03;;;13.78;100.00
4392;BME280;2210;51.938;8.488;2023-05-21T04:49:10;100641.63;;;13.81;100.00
4392;BME280;2210;51.938;8.488;2023-05-21T04:53:10;100643.22;;;13.77;100.00
4392;BME280;2210;51.938;8.488;2023-05-21T04:57:14;100645.53;;;13.86;100.00
4392;BME280;2210;51.938;8.488;2023-05-21T05:01:14;100640.53;;;13.82;100.00
4392;BME280;2210;51.938;8.488;2023-05-21T05:05:15;100627.94;;;13.97;100.00
4392;BME280;2210;51.938;8.488;2023-05-21T05:09:15;100619.81;;;13.90;100.00
4392;BME280;2210;51.938;8.488;2023-05-21T05:13:15;100621.25;;;13.93;100.00
4392;BME280;2210;51.938;8.488;2023-05-21T05:17:16;100617.38;;;13.94;100.00
4392;BME280;2210;51.938;8.488;2023-05-21T05:21:16;100624.09;;;13.98;100.00
4392;BME280;2210;51.938;8.488;2023-05-21T05:25:16;100622.72;;;13.78;100.00
4392;BME280;2210;51.938;8.488;2023-05-21T05:29:17;100610.59;;;13.85;100.00
4392;BME280;2210;51.938;8.488;2023-05-21T05:33:17;100606.22;;;13.89;100.00
4392;BME280;2210;51.938;8.488;2023-05-21T05:37:20;100610.94;;;13.88;100.00
4392;BME280;2210;51.938;8.488;2023-05-21T05:41:27;100603.44;;;13.89;100.00
4392;BME280;2210;51.938;8.488;2023-05-21T05:45:27;100603.84;;;13.97;100.00
4392;BME280;2210;51.938;8.488;2023-05-21T05:49:27;100609.97;;;13.99;100.00
4392;BME280;2210;51.938;8.488;2023-05-21T05:53:30;100605.13;;;14.12;100.00
4392;BME280;2210;51.938;8.488;2023-05-21T05:57:37;100594.28;;;14.10;100.00
4392;BME280;2210;51.938;8.488;2023-05-21T06:01:38;100593.47;;;14.10;100.00
4392;BME280;2210;51.938;8.488;2023-05-21T06:05:39;100597.06;;;14.10;100.00
4392;BME280;2210;51.938;8.488;2023-05-21T06:09:39;100594.88;;;14.12;100.00
4392;BME280;2210;51.938;8.488;2023-05-21T06:13:39;100592.75;;;14.20;100.00
4392;BME280;2210;51.938;8.488;2023-05-21T06:17:39;100587.59;;;14.28;100.00
4392;BME280;2210;51.938;8.488;2023-05-21T06:21:40;100585.16;;;14.37;100.00
4392;BME280;2210;51.938;8.488;2023-05-21T06:25:43;100589.56;;;14.33;100.00
4392;BME280;2210;51.938;8.488;2023-05-21T06:29:49;100598.97;;;14.32;100.00
4392;BME280;2210;51.938;8.488;2023-05-21T06:33:50;100582.25;;;14.27;100.00
4392;BME280;2210;51.938;8.488;2023-05-21T06:37:50;100592.00;;;14.29;100.00
4392;BME280;2210;51.938;8.488;2023-05-21T06:41:50;100580.75;;;14.41;100.00
4392;BME280;2210;51.938;8.488;2023-05-21T06:45:54;100585.50;;;14.46;100.00
4392;BME280;2210;51.938;8.488;2023-05-21T06:49:54;100587.56;;;14.56;100.00
4392;BME280;2210;51.938;8.488;2023-05-21T06:53:54;100587.13;;;14.64;100.00
4392;BME280;2210;51.938;8.488;2023-05-21T06:57:56;100587.69;;;14.66;100.00
4392;BME280;2210;51.938;8.488;2023-05-21T07:01:56;100589.47;;;14.77;100.00
4392;BME280;2210;51.938;8.488;2023-05-21T07:05:57;100589.19;;;14.79;100.00
4392;BME280;2210;51.938;8.488;2023-05-21T07:09:57;100600.13;;;14.91;100.00
4392;BME280;2210;51.938;8.488;2023-05-21T07:13:58;100603.47;;;14.93;100.00
4392;BME280;2210;51.938;8.488;2023-05-21T07:18:01;100604.28;;;14.93;100.00
4392;BME280;2210;51.938;8.488;2023-05-21T07:22:04;100601.28;;;14.95;100.00
4392;BME280;2210;51.938;8.488;2023-05-21T07:26:11;100596.66;;;15.06;100.00
4392;BME280;2210;51.938;8.488;2023-05-21T07:30:12;100598.13;;;15.18;100.00
4392;BME280;2210;51.938;8.488;2023-05-21T07:34:13;100600.97;;;15.29;100.00
4392;BME280;2210;51.938;8.488;2023-05-21T07:38:13;100596.00;;;15.36;100.00
4392;BME280;2210;51.938;8.488;2023-05-21T07:42:13;100595.31;;;15.56;100.00
4392;BME280;2210;51.938;8.488;2023-05-21T07:46:14;100597.03;;;15.67;100.00
4392;BME280;2210;51.938;8.488;2023-05-21T07:50:14;100597.03;;;15.67;100.00
4392;BME280;2210;51.938;8.488;2023-05-21T07:54:20;100593.44;;;15.77;100.00
4392;BME280;2210;51.938;8.488;2023-05-21T07:58:21;100585.75;;;15.84;100.00
4392;BME280;2210;51.938;8.488;2023-05-21T08:02:22;100586.88;;;15.89;100.00
4392;BME280;2210;51.938;8.488;2023-05-21T08:06:22;100590.00;;;16.08;100.00
4392;BME280;2210;51.938;8.488;2023-05-21T08:10:23;100585.84;;;16.15;100.00
4392;BME280;2210;51.938;8.488;2023-05-21T08:14:26;100588.44;;;16.38;100.00
4392;BME280;2210;51.938;8.488;2023-05-21T08:18:26;100587.56;;;16.37;100.00
4392;BME280;2210;51.938;8.488;2023-05-21T08:22:27;100586.47;;;16.43;100.00
4392;BME280;2210;51.938;8.488;2023-05-21T08:26:27;100598.19;;;16.50;100.00
4392;BME280;2210;51.938;8.488;2023-05-21T08:30:34;100593.47;;;16.51;100.00
4392;BME280;2210;51.938;8.488;2023-05-21T08:34:34;100598.22;;;16.61;100.00
4392;BME280;2210;51.938;8.488;2023-05-21T08:38:37;100588.75;;;16.72;100.00
4392;BME280;2210;51.938;8.488;2023-05-21T08:42:42;100587.09;;;16.81;100.00
4392;BME280;2210;51.938;8.488;2023-05-21T08:46:44;100584.28;;;16.81;100.00
4392;BME280;2210;51.938;8.488;2023-05-21T08:50:45;100589.88;;;16.86;100.00
4392;BME280;2210;51.938;8.488;2023-05-21T08:54:46;100588.19;;;16.85;100.00
4392;BME280;2210;51.938;8.488;2023-05-21T08:58:47;100596.03;;;16.99;100.00
4392;BME280;2210;51.938;8.488;2023-05-21T09:02:47;100598.78;;;17.19;100.00
4392;BME280;2210;51.938;8.488;2023-05-21T09:06:48;100594.03;;;17.35;100.00
4392;BME280;2210;51.938;8.488;2023-05-21T09:10:50;100596.25;;;17.49;100.00
4392;BME280;2210;51.938;8.488;2023-05-21T09:14:51;100584.47;;;17.73;99.94
4392;BME280;2210;51.938;8.488;2023-05-21T09:18:51;100586.94;;;17.84;98.56
4392;BME280;2210;51.938;8.488;2023-05-21T09:22:52;100580.19;;;18.01;98.79
4392;BME280;2210;51.938;8.488;2023-05-21T09:26:52;100577.97;;;18.03;96.41
4392;BME280;2210;51.938;8.488;2023-05-21T09:30:54;100576.75;;;18.19;93.87
4392;BME280;2210;51.938;8.488;2023-05-21T09:34:54;100575.03;;;18.29;94.39
4392;BME280;2210;51.938;8.488;2023-05-21T09:38:58;100567.97;;;18.42;95.64
4392;BME280;2210;51.938;8.488;2023-05-21T09:43:05;100570.66;;;18.57;95.16
4392;BME280;2210;51.938;8.488;2023-05-21T09:47:07;100557.50;;;18.63;90.57
4392;BME280;2210;51.938;8.488;2023-05-21T09:51:13;100560.44;;;19.11;91.48
4392;BME280;2210;51.938;8.488;2023-05-21T09:55:21;100573.50;;;18.92;90.34
4392;BME280;2210;51.938;8.488;2023-05-21T09:59:21;100567.31;;;19.24;92.88
4392;BME280;2210;51.938;8.488;2023-05-21T10:03:22;100570.53;;;19.36;86.33
4392;BME280;2210;51.938;8.488;2023-05-21T10:07:25;100561.63;;;19.59;87.41
4392;BME280;2210;51.938;8.488;2023-05-21T10:11:29;100548.66;;;19.92;86.75
4392;BME280;2210;51.938;8.488;2023-05-21T10:15:58;100538.72;;;20.05;84.81
4392;BME280;2210;51.938;8.488;2023-05-21T10:20:01;100540.56;;;19.91;85.25
4392;BME280;2210;51.938;8.488;2023-05-21T10:24:02;100536.81;;;20.00;86.31
4392;BME280;2210;51.938;8.488;2023-05-21T10:28:10;100529.72;;;20.08;83.85
4392;BME280;2210;51.938;8.488;2023-05-21T10:32:15;100533.63;;;20.07;83.74
4392;BME280;2210;51.938;8.488;2023-05-21T10:36:18;100529.25;;;20.39;83.23
4392;BME280;2210;51.938;8.488;2023-05-21T10:40:20;100532.56;;;20.60;85.49
4392;BME280;2210;51.938;8.488;2023-05-21T10:44:33;100516.31;;;20.43;82.92
4392;BME280;2210;51.938;8.488;2023-05-21T10:48:51;100508.28;;;20.55;84.70
4392;BME280;2210;51.938;8.488;2023-05-21T10:53:37;100519.81;;;20.68;87.03
4392;BME280;2210;51.938;8.488;2023-05-21T11:02:20;100515.63;;;20.70;84.87
4392;BME280;2210;51.938;8.488;2023-05-21T11:06:22;100512.22;;;20.87;82.61
4392;BME280;2210;51.938;8.488;2023-05-21T11:10:39;100505.56;;;20.83;83.46
4392;BME280;2210;51.938;8.488;2023-05-21T11:14:56;100507.91;;;20.95;83.20
4392;BME280;2210;51.938;8.488;2023-05-21T11:18:56;100502.22;;;21.14;83.37
4392;BME280;2210;51.938;8.488;2023-05-21T11:23:00;100496.09;;;21.12;81.50
4392;BME280;2210;51.938;8.488;2023-05-21T11:27:01;100489.66;;;21.12;80.96
4392;BME280;2210;51.938;8.488;2023-05-21T11:31:24;100497.16;;;21.16;80.83
4392;BME280;2210;51.938;8.488;2023-05-21T11:35:28;100494.84;;;21.04;82.35
4392;BME280;2210;51.938;8.488;2023-05-21T11:39:28;100480.50;;;21.20;80.27
4392;BME280;2210;51.938;8.488;2023-05-21T11:43:29;100494.34;;;21.30;84.18
4392;BME280;2210;51.938;8.488;2023-05-21T11:47:30;100491.31;;;21.27;81.48
4392;BME280;2210;51.938;8.488;2023-05-21T11:51:31;100493.31;;;21.26;83.75
4392;BME280;2210;51.938;8.488;2023-05-21T11:55:38;100490.00;;;21.38;83.33
4392;BME280;2210;51.938;8.488;2023-05-21T11:59:42;100486.97;;;21.48;83.15
4392;BME280;2210;51.938;8.488;2023-05-21T12:03:42;100480.84;;;21.46;85.28
4392;BME280;2210;51.938;8.488;2023-05-21T12:07:45;100472.44;;;21.46;84.50
4392;BME280;2210;51.938;8.488;2023-05-21T12:11:47;100489.91;;;21.57;85.37
4392;BME280;2210;51.938;8.488;2023-05-21T12:15:47;100470.75;;;21.73;82.77
4392;BME280;2210;51.938;8.488;2023-05-21T12:19:51;100468.66;;;21.93;85.03
4392;BME280;2210;51.938;8.488;2023-05-21T12:23:55;100464.56;;;21.99;82.92
4392;BME280;2210;51.938;8.488;2023-05-21T12:27:56;100462.66;;;22.08;79.78
4392;BME280;2210;51.938;8.488;2023-05-21T12:31:58;100467.78;;;22.06;83.52
4392;BME280;2210;51.938;8.488;2023-05-21T12:35:59;100461.63;;;22.04;78.95
4392;BME280;2210;51.938;8.488;2023-05-21T12:40:06;100466.13;;;22.05;80.65
4392;BME280;2210;51.938;8.488;2023-05-21T12:44:11;100466.13;;;22.05;82.95
4392;BME280;2210;51.938;8.488;2023-05-21T12:48:11;100466.50;;;22.12;79.66
4392;BME280;2210;51.938;8.488;2023-05-21T12:52:12;100459.41;;;22.15;77.05
4392;BME280;2210;51.938;8.488;2023-05-21T12:56:14;100451.09;;;22.46;77.95
4392;BME280;2210;51.938;8.488;2023-05-21T13:00:22;100453.41;;;22.67;75.03
4392;BME280;2210;51.938;8.488;2023-05-21T13:04:22;100454.53;;;22.66;75.31
4392;BME280;2210;51.938;8.488;2023-05-21T13:08:23;100459.88;;;22.76;75.46
4392;BME280;2210;51.938;8.488;2023-05-21T13:12:28;100461.06;;;22.75;71.48
4392;BME280;2210;51.938;8.488;2023-05-21T13:16:31;100461.50;;;23.00;72.19
4392;BME280;2210;51.938;8.488;2023-05-21T13:20:32;100466.59;;;22.89;74.21
4392;BME280;2210;51.938;8.488;2023-05-21T13:24:32;100461.09;;;22.84;72.27
4392;BME280;2210;51.938;8.488;2023-05-21T13:28:36;100460.03;;;22.71;72.18
4392;BME280;2210;51.938;8.488;2023-05-21T13:32:37;100458.00;;;22.94;75.96
4392;BME280;2210;51.938;8.488;2023-05-21T13:36:38;100455.19;;;22.94;73.74
4392;BME280;2210;51.938;8.488;2023-05-21T13:40:38;100452.28;;;22.77;72.93
4392;BME280;2210;51.938;8.488;2023-05-21T13:44:38;100449.19;;;22.87;74.78
4392;BME280;2210;51.938;8.488;2023-05-21T13:48:39;100446.22;;;22.83;72.52
4392;BME280;2210;51.938;8.488;2023-05-21T13:52:39;100440.63;;;22.92;74.54
4392;BME280;2210;51.938;8.488;2023-05-21T13:56:39;100432.84;;;23.20;76.04
4392;BME280;2210;51.938;8.488;2023-05-21T14:00:40;100432.03;;;23.29;72.81
4392;BME280;2210;51.938;8.488;2023-05-21T14:04:41;100434.38;;;23.27;70.15
4392;BME280;2210;51.938;8.488;2023-05-21T14:08:42;100434.16;;;23.23;71.80
4392;BME280;2210;51.938;8.488;2023-05-21T14:12:48;100438.06;;;23.53;73.17
4392;BME280;2210;51.938;8.488;2023-05-21T14:16:49;100427.31;;;23.55;72.96
4392;BME280;2210;51.938;8.488;2023-05-21T14:20:49;100427.00;;;23.66;69.67
4392;BME280;2210;51.938;8.488;2023-05-21T14:24:53;100424.66;;;23.50;69.52
4392;BME280;2210;51.938;8.488;2023-05-21T14:28:53;100418.53;;;23.48;71.67
4392;BME280;2210;51.938;8.488;2023-05-21T14:32:53;100414.56;;;23.58;70.16
4392;BME280;2210;51.938;8.488;2023-05-21T14:36:54;100406.63;;;23.60;72.71
4392;BME280;2210;51.938;8.488;2023-05-21T14:40:54;100403.97;;;23.72;71.06
4392;BME280;2210;51.938;8.488;2023-05-21T14:44:54;100410.78;;;23.80;70.61
4392;BME280;2210;51.938;8.488;2023-05-21T14:48:54;100403.66;;;23.83;70.87
4392;BME280;2210;51.938;8.488;2023-05-21T14:52:58;100408.47;;;23.65;70.64
4392;BME280;2210;51.938;8.488;2023-05-21T14:56:58;100409.28;;;23.65;70.21
4392;BME280;2210;51.938;8.488;2023-05-21T15:05:43;100404.47;;;23.83;70.65
4392;BME280;2210;51.938;8.488;2023-05-21T15:09:44;100397.84;;;23.79;70.10
4392;BME280;2210;51.938;8.488;2023-05-21T15:13:44;100398.53;;;23.76;70.12
4392;BME280;2210;51.938;8.488;2023-05-21T15:17:49;100395.72;;;23.76;71.70
4392;BME280;2210;51.938;8.488;2023-05-21T15:21:52;100387.75;;;23.69;71.10
4392;BME280;2210;51.938;8.488;2023-05-21T15:25:52;100387.91;;;23.64;69.77
4392;BME280;2210;51.938;8.488;2023-05-21T15:29:59;100386.75;;;23.56;69.38
4392;BME280;2210;51.938;8.488;2023-05-21T15:34:00;100382.47;;;23.59;71.35
4392;BME280;2210;51.938;8.488;2023-05-21T15:38:09;100369.03;;;23.56;70.47
4392;BME280;2210;51.938;8.488;2023-05-21T15:42:10;100367.06;;;23.56;70.32
4392;BME280;2210;51.938;8.488;2023-05-21T15:46:23;100357.13;;;23.59;70.04
4392;BME280;2210;51.938;8.488;2023-05-21T15:50:23;100356.31;;;23.67;70.92
4392;BME280;2210;51.938;8.488;2023-05-21T15:54:24;100361.09;;;23.67;72.17
4392;BME280;2210;51.938;8.488;2023-05-21T15:58:30;100349.19;;;23.70;70.72
4392;BME280;2210;51.938;8.488;2023-05-21T16:02:31;100346.84;;;23.72;73.34
4392;BME280;2210;51.938;8.488;2023-05-21T16:06:31;100350.69;;;23.85;70.39
4392;BME280;2210;51.938;8.488;2023-05-21T16:10:31;100351.38;;;23.90;69.55
4392;BME280;2210;51.938;8.488;2023-05-21T16:14:32;100352.34;;;23.95;69.26
4392;BME280;2210;51.938;8.488;2023-05-21T16:18:32;100347.88;;;24.02;69.34
4392;BME280;2210;51.938;8.488;2023-05-21T16:22:32;100355.31;;;24.07;67.64
4392;BME280;2210;51.938;8.488;2023-05-21T16:26:33;100351.00;;;24.10;67.26
4392;BME280;2210;51.938;8.488;2023-05-21T16:30:39;100347.88;;;24.11;66.26
4392;BME280;2210;51.938;8.488;2023-05-21T16:34:40;100342.06;;;24.07;67.32
4392;BME280;2210;51.938;8.488;2023-05-21T16:38:46;100345.56;;;24.04;67.53
4392;BME280;2210;51.938;8.488;2023-05-21T16:42:47;100342.25;;;24.02;67.33
4392;BME280;2210;51.938;8.488;2023-05-21T16:46:48;100344.38;;;23.97;66.49
4392;BME280;2210;51.938;8.488;2023-05-21T16:50:58;100348.22;;;23.92;67.51
4392;BME280;2210;51.938;8.488;2023-05-21T16:54:58;100350.34;;;23.95;66.43
4392;BME280;2210;51.938;8.488;2023-05-21T16:58:58;100357.00;;;23.90;66.24
4392;BME280;2210;51.938;8.488;2023-05-21T17:03:02;100349.38;;;23.91;66.80
4392;BME280;2210;51.938;8.488;2023-05-21T17:07:02;100342.72;;;23.87;66.29
4392;BME280;2210;51.938;8.488;2023-05-21T17:11:02;100350.03;;;23.97;65.74
4392;BME280;2210;51.938;8.488;2023-05-21T17:15:03;100338.91;;;24.09;64.20
4392;BME280;2210;51.938;8.488;2023-05-21T17:19:03;100338.75;;;24.05;65.04
4392;BME280;2210;51.938;8.488;2023-05-21T17:23:06;100332.16;;;24.01;64.26
4392;BME280;2210;51.938;8.488;2023-05-21T17:27:09;100336.63;;;24.02;63.67
4392;BME280;2210;51.938;8.488;2023-05-21T17:31:10;100333.81;;;24.02;63.58
4392;BME280;2210;51.938;8.488;2023-05-21T17:35:10;100331.28;;;24.01;62.84
4392;BME280;2210;51.938;8.488;2023-05-21T17:39:10;100334.94;;;23.93;64.02
4392;BME280;2210;51.938;8.488;2023-05-21T17:43:17;100343.06;;;23.85;64.29
4392;BME280;2210;51.938;8.488;2023-05-21T17:47:23;100344.22;;;23.76;63.99
4392;BME280;2210;51.938;8.488;2023-05-21T17:51:23;100336.59;;;23.67;64.53
4392;BME280;2210;51.938;8.488;2023-05-21T17:55:23;100341.72;;;23.65;64.60
4392;BME280;2210;51.938;8.488;2023-05-21T17:59:24;100346.84;;;23.54;65.68
4392;BME280;2210;51.938;8.488;2023-05-21T18:03:24;100331.94;;;23.63;63.56
4392;BME280;2210;51.938;8.488;2023-05-21T18:07:31;100333.28;;;23.56;63.36
4392;BME280;2210;51.938;8.488;2023-05-21T18:11:43;100327.97;;;23.46;62.92
4392;BME280;2210;51.938;8.488;2023-05-21T18:15:50;100332.59;;;23.42;62.79
4392;BME280;2210;51.938;8.488;2023-05-21T18:20:14;100327.13;;;23.28;63.21
4392;BME280;2210;51.938;8.488;2023-05-21T18:24:21;100325.28;;;23.23;62.82
4392;BME280;2210;51.938;8.488;2023-05-21T18:28:21;100324.13;;;23.16;62.45
4392;BME280;2210;51.938;8.488;2023-05-21T18:32:27;100332.91;;;23.14;62.46
4392;BME280;2210;51.938;8.488;2023-05-21T18:36:28;100337.13;;;23.03;62.79
4392;BME280;2210;51.938;8.488;2023-05-21T18:40:37;100334.97;;;23.00;61.85
4392;BME280;2210;51.938;8.488;2023-05-21T18:44:41;100340.41;;;22.87;62.50
4392;BME280;2210;51.938;8.488;2023-05-21T18:48:50;100339.03;;;22.76;62.84
4392;BME280;2210;51.938;8.488;2023-05-21T18:52:51;100341.34;;;22.83;61.92
4392;BME280;2210;51.938;8.488;2023-05-21T18:56:55;100341.47;;;22.69;62.26
4392;BME280;2210;51.938;8.488;2023-05-21T19:01:05;100344.75;;;22.62;63.46
4392;BME280;2210;51.938;8.488;2023-05-21T19:05:08;100341.91;;;22.53;63.06
4392;BME280;2210;51.938;8.488;2023-05-21T19:09:08;100350.47;;;22.48;63.03
4392;BME280;2210;51.938;8.488;2023-05-21T19:13:09;100346.00;;;22.47;63.78
4392;BME280;2210;51.938;8.488;2023-05-21T19:17:15;100349.28;;;22.40;64.17
4392;BME280;2210;51.938;8.488;2023-05-21T19:21:42;100349.28;;;22.40;63.87
4392;BME280;2210;51.938;8.488;2023-05-21T19:25:42;100355.09;;;22.44;63.92
4392;BME280;2210;51.938;8.488;2023-05-21T19:29:49;100349.41;;;22.35;64.00
4392;BME280;2210;51.938;8.488;2023-05-21T19:33:53;100361.22;;;22.23;64.48
4392;BME280;2210;51.938;8.488;2023-05-21T19:38:03;100369.47;;;22.29;64.76
4392;BME280;2210;51.938;8.488;2023-05-21T19:42:13;100384.06;;;22.31;64.20
4392;BME280;2210;51.938;8.488;2023-05-21T19:46:13;100390.69;;;22.12;67.71
4392;BME280;2210;51.938;8.488;2023-05-21T19:50:13;100400.53;;;22.01;67.85
4392;BME280;2210;51.938;8.488;2023-05-21T19:54:14;100404.72;;;21.89;69.48
4392;BME280;2210;51.938;8.488;2023-05-21T19:58:14;100401.13;;;21.75;71.47
4392;BME280;2210;51.938;8.488;2023-05-21T20:02:18;100398.03;;;21.63;71.60
4392;BME280;2210;51.938;8.488;2023-05-21T20:06:27;100402.72;;;21.53;71.08
4392;BME280;2210;51.938;8.488;2023-05-21T20:10:34;100405.00;;;21.51;71.81
4392;BME280;2210;51.938;8.488;2023-05-21T20:14:34;100410.72;;;21.46;71.47
4392;BME280;2210;51.938;8.488;2023-05-21T20:18:41;100432.78;;;21.53;72.56
4392;BME280;2210;51.938;8.488;2023-05-21T20:23:06;100442.72;;;21.45;73.98
4392;BME280;2210;51.938;8.488;2023-05-21T20:27:15;100439.50;;;21.38;75.88
4392;BME280;2210;51.938;8.488;2023-05-21T20:31:24;100435.56;;;21.25;78.81
4392;BME280;2210;51.938;8.488;2023-05-21T20:35:35;100426.34;;;21.11;78.59
4392;BME280;2210;51.938;8.488;2023-05-21T20:39:35;100421.13;;;21.04;79.41
4392;BME280;2210;51.938;8.488;2023-05-21T20:43:39;100425.97;;;20.98;80.68
4392;BME280;2210;51.938;8.488;2023-05-21T20:47:42;100422.13;;;20.94;81.70
4392;BME280;2210;51.938;8.488;2023-05-21T20:51:45;100430.78;;;20.98;82.39
4392;BME280;2210;51.938;8.488;2023-05-21T20:55:46;100416.13;;;20.87;83.46
4392;BME280;2210;51.938;8.488;2023-05-21T20:59:47;100413.63;;;20.71;85.96
4392;BME280;2210;51.938;8.488;2023-05-21T21:03:47;100417.25;;;20.72;87.05
4392;BME280;2210;51.938;8.488;2023-05-21T21:07:47;100410.31;;;20.50;88.29
4392;BME280;2210;51.938;8.488;2023-05-21T21:11:47;100407.09;;;20.43;88.79
4392;BME280;2210;51.938;8.488;2023-05-21T21:15:51;100402.09;;;20.40;90.06
4392;BME280;2210;51.938;8.488;2023-05-21T21:19:51;100391.31;;;20.33;90.65
4392;BME280;2210;51.938;8.488;2023-05-21T21:23:54;100391.75;;;20.41;90.48
4392;BME280;2210;51.938;8.488;2023-05-21T21:28:01;100393.19;;;20.38;90.70
4392;BME280;2210;51.938;8.488;2023-05-21T21:32:01;100390.88;;;20.40;90.66
4392;BME280;2210;51.938;8.488;2023-05-21T21:36:04;100389.75;;;20.41;90.51
4392;BME280;2210;51.938;8.488;2023-05-21T21:40:06;100385.59;;;20.38;90.41
4392;BME280;2210;51.938;8.488;2023-05-21T21:44:06;100385.28;;;20.40;90.44
4392;BME280;2210;51.938;8.488;2023-05-21T21:48:06;100381.00;;;20.29;90.69